sensor_id;sensor_type;location;lat;lon;timestamp;pressure;altitude;pressure_sealevel;temperature;humidity
12963;BME280;6546;49.882;8.666;2023-04-21T00:01:45;99761.16;;;8.78;79.22
12963;BME280;6546;49.882;8.666;2023-04-21T00:04:12;99770.03;;;8.84;78.47
12963;BME280;6546;49.882;8.666;2023-04-21T00:06:39;99759.66;;;8.68;78.70
12963;BME280;6546;49.882;8.666;2023-04-21T00:09:08;99749.00;;;8.55;79.19
12963;BME280;6546;49.882;8.666;2023-04-21T00:11:36;99756.41;;;8.58;79.82
12963;BME280;6546;49.882;8.666;2023-04-21T00:14:11;99761.06;;;8.46;79.87
12963;BME280;6546;49.882;8.666;2023-04-21T00:16:38;99765.09;;;8.49;80.14
12963;BME280;6546;49.882;8.666;2023-04-21T00:19:04;99756.91;;;8.27;80.63
12963;BME280;6546;49.882;8.666;2023-04-21T00:21:31;99761.00;;;8.30;80.81
12963;BME280;6546;49.882;8.666;2023-04-21T00:24:01;99749.44;;;8.42;80.48
12963;BME280;6546;49.882;8.666;2023-04-21T00:26:29;99736.34;;;8.43;80.53
12963;BME280;6546;49.882;8.666;2023-04-21T00:28:56;99739.75;;;8.36;80.85
12963;BME280;6546;49.882;8.666;2023-04-21T00:31:22;99749.75;;;8.39;80.88
12963;BME280;6546;49.882;8.666;2023-04-21T00:33:49;99747.69;;;8.51;80.09
12963;BME280;6546;49.882;8.666;2023-04-21T00:36:16;99740.25;;;8.48;79.93
12963;BME280;6546;49.882;8.666;2023-04-21T00:38:45;99745.41;;;8.39;79.77
12963;BME280;6546;49.882;8.666;2023-04-21T00:41:12;99759.00;;;8.24;80.75
12963;BME280;6546;49.882;8.666;2023-04-21T00:44:01;99745.94;;;8.25;80.74
12963;BME280;6546;49.882;8.666;2023-04-21T00:46:27;99751.09;;;8.25;80.66
12963;BME280;6546;49.882;8.666;2023-04-21T00:48:55;99746.72;;;8.18;81.19
12963;BME280;6546;49.882;8.666;2023-04-21T00:51:23;99751.72;;;8.19;81.70
12963;BME280;6546;49.882;8.666;2023-04-21T00:53:50;99746.59;;;8.27;81.42
12963;BME280;6546;49.882;8.666;2023-04-21T00:56:16;99746.13;;;8.24;81.04
12963;BME280;6546;49.882;8.666;2023-04-21T00:58:44;99742.88;;;8.22;81.24
12963;BME280;6546;49.882;8.666;2023-04-21T01:01:13;99745.44;;;8.22;81.22
12963;BME280;6546;49.882;8.666;2023-04-21T01:03:40;99729.47;;;8.18;81.40
12963;BME280;6546;49.882;8.666;2023-04-21T01:06:07;99734.94;;;8.15;81.79
12963;BME280;6546;49.882;8.666;2023-04-21T01:08:34;99741.41;;;8.19;81.34
12963;BME280;6546;49.882;8.666;2023-04-21T01:11:08;99733.78;;;8.10;81.91
12963;BME280;6546;49.882;8.666;2023-04-21T01:13:35;99738.75;;;8.03;82.31
12963;BME280;6546;49.882;8.666;2023-04-21T01:16:01;99736.81;;;8.05;81.84
12963;BME280;6546;49.882;8.666;2023-04-21T01:18:29;99735.16;;;7.96;82.28
12963;BME280;6546;49.882;8.666;2023-04-21T01:20:56;99729.91;;;8.06;81.88
12963;BME280;6546;49.882;8.666;2023-04-21T01:23:24;99733.72;;;7.93;82.56
12963;BME280;6546;49.882;8.666;2023-04-21T01:25:52;99734.53;;;7.94;82.95
12963;BME280;6546;49.882;8.666;2023-04-21T01:28:20;99737.75;;;7.96;82.82
12963;BME280;6546;49.882;8.666;2023-04-21T01:30:47;99742.47;;;8.09;82.41
12963;BME280;6546;49.882;8.666;2023-04-21T01:33:14;99744.88;;;8.02;82.03
12963;BME280;6546;49.882;8.666;2023-04-21T01:35:40;99738.75;;;8.03;82.40
12963;BME280;6546;49.882;8.666;2023-04-21T01:38:07;99748.56;;;8.00;82.44
12963;BME280;6546;49.882;8.666;2023-04-21T01:40:36;99740.53;;;8.03;82.19
12963;BME280;6546;49.882;8.666;2023-04-21T01:43:02;99737.50;;;8.07;82.14
12963;BME280;6546;49.882;8.666;2023-04-21T01:45:29;99732.34;;;8.15;81.89
12963;BME280;6546;49.882;8.666;2023-04-21T01:47:56;99735.25;;;8.12;81.97
12963;BME280;6546;49.882;8.666;2023-04-21T01:50:22;99737.81;;;8.12;81.90
12963;BME280;6546;49.882;8.666;2023-04-21T01:52:49;99728.81;;;8.16;82.00
12963;BME280;6546;49.882;8.666;2023-04-21T01:55:15;99717.69;;;8.08;81.82
12963;BME280;6546;49.882;8.666;2023-04-21T01:57:43;99743.19;;;8.19;81.49
12963;BME280;6546;49.882;8.666;2023-04-21T02:00:11;99739.13;;;8.16;81.79
12963;BME280;6546;49.882;8.666;2023-04-21T02:02:38;99736.09;;;8.21;81.50
12963;BME280;6546;49.882;8.666;2023-04-21T02:05:05;99719.63;;;8.14;81.68
12963;BME280;6546;49.882;8.666;2023-04-21T02:07:31;99737.41;;;8.25;81.45
12963;BME280;6546;49.882;8.666;2023-04-21T02:09:58;99736.91;;;8.21;81.41
12963;BME280;6546;49.882;8.666;2023-04-21T02:12:24;99737.00;;;8.12;81.75
12963;BME280;6546;49.882;8.666;2023-04-21T02:14:53;99735.88;;;8.14;81.79
12963;BME280;6546;49.882;8.666;2023-04-21T02:17:19;99732.53;;;8.14;81.54
12963;BME280;6546;49.882;8.666;2023-04-21T02:19:46;99745.13;;;8.17;81.45
12963;BME280;6546;49.882;8.666;2023-04-21T02:22:12;99737.22;;;8.18;81.52
12963;BME280;6546;49.882;8.666;2023-04-21T02:24:39;99734.94;;;8.15;81.58
12963;BME280;6546;49.882;8.666;2023-04-21T02:27:06;99732.59;;;7.96;81.99
12963;BME280;6546;49.882;8.666;2023-04-21T02:29:32;99735.16;;;7.96;81.79
12963;BME280;6546;49.882;8.666;2023-04-21T02:32:00;99738.25;;;8.00;81.95
12963;BME280;6546;49.882;8.666;2023-04-21T02:34:27;99742.59;;;7.99;82.04
12963;BME280;6546;49.882;8.666;2023-04-21T02:36:53;99739.09;;;8.08;81.76
12963;BME280;6546;49.882;8.666;2023-04-21T02:39:20;99730.66;;;7.98;81.82
12963;BME280;6546;49.882;8.666;2023-04-21T02:41:46;99735.66;;;7.91;82.06
12963;BME280;6546;49.882;8.666;2023-04-21T02:44:13;99745.44;;;7.88;82.26
12963;BME280;6546;49.882;8.666;2023-04-21T02:46:39;99751.13;;;7.91;82.49
12963;BME280;6546;49.882;8.666;2023-04-21T02:49:07;99751.13;;;7.91;82.16
12963;BME280;6546;49.882;8.666;2023-04-21T02:51:34;99741.78;;;7.99;81.73
12963;BME280;6546;49.882;8.666;2023-04-21T02:54:01;99748.38;;;7.93;81.88
12963;BME280;6546;49.882;8.666;2023-04-21T02:56:28;99747.41;;;7.94;82.30
12963;BME280;6546;49.882;8.666;2023-04-21T02:58:54;99741.69;;;7.82;82.26
12963;BME280;6546;49.882;8.666;2023-04-21T03:01:21;99754.06;;;7.79;82.38
12963;BME280;6546;49.882;8.666;2023-04-21T03:03:47;99753.44;;;7.77;82.42
12963;BME280;6546;49.882;8.666;2023-04-21T03:06:15;99752.31;;;7.79;82.59
12963;BME280;6546;49.882;8.666;2023-04-21T03:08:42;99748.81;;;7.88;81.60
12963;BME280;6546;49.882;8.666;2023-04-21T03:11:08;99762.78;;;7.78;82.09
12963;BME280;6546;49.882;8.666;2023-04-21T03:13:35;99756.16;;;7.75;82.29
12963;BME280;6546;49.882;8.666;2023-04-21T03:16:01;99759.50;;;7.68;82.84
12963;BME280;6546;49.882;8.666;2023-04-21T03:18:28;99758.88;;;7.74;82.92
12963;BME280;6546;49.882;8.666;2023-04-21T03:20:58;99751.28;;;7.72;82.59
12963;BME280;6546;49.882;8.666;2023-04-21T03:23:27;99758.88;;;7.74;82.40
12963;BME280;6546;49.882;8.666;2023-04-21T03:25:53;99756.66;;;7.79;82.23
12963;BME280;6546;49.882;8.666;2023-04-21T03:28:20;99753.59;;;7.75;82.14
12963;BME280;6546;49.882;8.666;2023-04-21T03:30:46;99756.25;;;7.66;82.64
12963;BME280;6546;49.882;8.666;2023-04-21T03:33:13;99752.72;;;7.67;82.88
12963;BME280;6546;49.882;8.666;2023-04-21T03:35:39;99748.50;;;7.66;82.73
12963;BME280;6546;49.882;8.666;2023-04-21T03:38:06;99745.94;;;7.66;82.74
12963;BME280;6546;49.882;8.666;2023-04-21T03:40:34;99744.03;;;7.68;82.34
12963;BME280;6546;49.882;8.666;2023-04-21T03:43:00;99737.88;;;7.61;82.78
12963;BME280;6546;49.882;8.666;2023-04-21T03:45:26;99741.75;;;7.65;82.30
12963;BME280;6546;49.882;8.666;2023-04-21T03:47:53;99748.50;;;7.66;82.30
12963;BME280;6546;49.882;8.666;2023-04-21T03:50:21;99748.78;;;7.55;82.70
12963;BME280;6546;49.882;8.666;2023-04-21T03:52:48;99748.13;;;7.53;82.58
12963;BME280;6546;49.882;8.666;2023-04-21T03:55:14;99747.16;;;7.54;82.75
12963;BME280;6546;49.882;8.666;2023-04-21T03:57:42;99750.84;;;7.51;82.75
12963;BME280;6546;49.882;8.666;2023-04-21T04:00:09;99747.53;;;7.41;83.05
12963;BME280;6546;49.882;8.666;2023-04-21T04:02:37;99758.06;;;7.48;82.89
12963;BME280;6546;49.882;8.666;2023-04-21T04:05:04;99754.75;;;7.37;83.24
12963;BME280;6546;49.882;8.666;2023-04-21T04:07:32;99756.69;;;7.35;83.51
12963;BME280;6546;49.882;8.666;2023-04-21T04:09:58;99746.22;;;7.37;83.04
12963;BME280;6546;49.882;8.666;2023-04-21T04:12:25;99743.88;;;7.26;83.72
12963;BME280;6546;49.882;8.666;2023-04-21T04:14:53;99745.13;;;7.22;84.22
12963;BME280;6546;49.882;8.666;2023-04-21T04:17:19;99746.59;;;7.24;83.82
12963;BME280;6546;49.882;8.666;2023-04-21T04:19:46;99737.31;;;7.31;83.20
12963;BME280;6546;49.882;8.666;2023-04-21T04:22:12;99743.97;;;7.16;83.87
12963;BME280;6546;49.882;8.666;2023-04-21T04:24:39;99737.72;;;7.19;84.08
12963;BME280;6546;49.882;8.666;2023-04-21T04:27:06;99736.00;;;7.27;83.21
12963;BME280;6546;49.882;8.666;2023-04-21T04:29:33;99733.38;;;7.19;83.57
12963;BME280;6546;49.882;8.666;2023-04-21T04:32:01;99726.59;;;7.18;83.38
12963;BME280;6546;49.882;8.666;2023-04-21T04:34:30;99709.53;;;7.17;83.15
12963;BME280;6546;49.882;8.666;2023-04-21T04:36:57;99726.81;;;7.25;83.08
12963;BME280;6546;49.882;8.666;2023-04-21T04:39:23;99736.38;;;7.15;83.41
12963;BME280;6546;49.882;8.666;2023-04-21T04:41:50;99737.19;;;7.15;83.57
12963;BME280;6546;49.882;8.666;2023-04-21T04:44:18;99737.94;;;7.25;82.56
12963;BME280;6546;49.882;8.666;2023-04-21T04:46:45;99741.22;;;7.18;82.88
12963;BME280;6546;49.882;8.666;2023-04-21T04:49:15;99743.97;;;7.16;83.00
12963;BME280;6546;49.882;8.666;2023-04-21T04:51:41;99734.56;;;7.07;82.87
12963;BME280;6546;49.882;8.666;2023-04-21T04:54:08;99733.97;;;7.13;83.18
12963;BME280;6546;49.882;8.666;2023-04-21T04:56:34;99731.81;;;7.09;83.03
12963;BME280;6546;49.882;8.666;2023-04-21T04:59:01;99738.59;;;7.10;83.04
12963;BME280;6546;49.882;8.666;2023-04-21T05:01:28;99738.59;;;7.10;83.04
12963;BME280;6546;49.882;8.666;2023-04-21T05:03:55;99740.22;;;7.11;83.17
12963;BME280;6546;49.882;8.666;2023-04-21T05:06:23;99742.34;;;7.15;83.36
12963;BME280;6546;49.882;8.666;2023-04-21T05:08:50;99735.28;;;7.17;82.61
12963;BME280;6546;49.882;8.666;2023-04-21T05:11:16;99733.22;;;7.21;82.43
12963;BME280;6546;49.882;8.666;2023-04-21T05:13:43;99729.78;;;7.12;82.90
12963;BME280;6546;49.882;8.666;2023-04-21T05:16:10;99737.19;;;7.15;83.21
12963;BME280;6546;49.882;8.666;2023-04-21T05:18:36;99738.81;;;7.16;82.92
12963;BME280;6546;49.882;8.666;2023-04-21T05:21:03;99743.00;;;7.17;82.57
12963;BME280;6546;49.882;8.666;2023-04-21T05:23:31;99744.19;;;7.23;82.48
12963;BME280;6546;49.882;8.666;2023-04-21T05:25:57;99743.38;;;7.22;82.58
12963;BME280;6546;49.882;8.666;2023-04-21T05:28:24;99736.59;;;7.21;82.95
12963;BME280;6546;49.882;8.666;2023-04-21T05:30:54;99736.69;;;7.29;82.99
12963;BME280;6546;49.882;8.666;2023-04-21T05:33:21;99741.88;;;7.37;82.75
12963;BME280;6546;49.882;8.666;2023-04-21T05:35:47;99743.72;;;7.45;82.25
12963;BME280;6546;49.882;8.666;2023-04-21T05:38:14;99740.41;;;7.53;82.17
12963;BME280;6546;49.882;8.666;2023-04-21T05:40:41;99744.94;;;7.59;82.24
12963;BME280;6546;49.882;8.666;2023-04-21T05:43:08;99755.97;;;7.69;81.86
12963;BME280;6546;49.882;8.666;2023-04-21T05:45:38;99758.28;;;7.80;81.89
12963;BME280;6546;49.882;8.666;2023-04-21T05:48:04;99760.84;;;7.80;81.42
12963;BME280;6546;49.882;8.666;2023-04-21T05:50:31;99751.56;;;7.87;80.83
12963;BME280;6546;49.882;8.666;2023-04-21T05:52:59;99749.50;;;7.90;80.57
12963;BME280;6546;49.882;8.666;2023-04-21T05:55:27;99747.56;;;7.92;79.84
12963;BME280;6546;49.882;8.666;2023-04-21T05:57:55;99749.28;;;7.84;80.45
12963;BME280;6546;49.882;8.666;2023-04-21T06:00:21;99744.78;;;7.86;80.30
12963;BME280;6546;49.882;8.666;2023-04-21T06:02:48;99732.09;;;7.92;80.31
12963;BME280;6546;49.882;8.666;2023-04-21T06:05:15;99748.13;;;8.12;80.01
12963;BME280;6546;49.882;8.666;2023-04-21T06:07:41;99740.47;;;8.20;79.89
12963;BME280;6546;49.882;8.666;2023-04-21T06:10:09;99740.50;;;8.28;79.67
12963;BME280;6546;49.882;8.666;2023-04-21T06:12:36;99738.66;;;8.21;79.41
12963;BME280;6546;49.882;8.666;2023-04-21T06:15:05;99738.84;;;8.19;79.81
12963;BME280;6546;49.882;8.666;2023-04-21T06:17:31;99739.97;;;8.25;79.21
12963;BME280;6546;49.882;8.666;2023-04-21T06:19:58;99750.28;;;8.17;79.94
12963;BME280;6546;49.882;8.666;2023-04-21T06:22:24;99750.78;;;8.20;79.78
12963;BME280;6546;49.882;8.666;2023-04-21T06:24:52;99748.84;;;8.22;80.26
12963;BME280;6546;49.882;8.666;2023-04-21T06:27:19;99754.81;;;8.23;80.21
12963;BME280;6546;49.882;8.666;2023-04-21T06:29:45;99751.56;;;8.21;80.66
12963;BME280;6546;49.882;8.666;2023-04-21T06:32:13;99748.25;;;8.28;80.40
12963;BME280;6546;49.882;8.666;2023-04-21T06:34:40;99755.03;;;8.37;80.26
12963;BME280;6546;49.882;8.666;2023-04-21T06:37:06;99747.69;;;8.51;80.32
12963;BME280;6546;49.882;8.666;2023-04-21T06:39:33;99749.00;;;8.63;79.63
12963;BME280;6546;49.882;8.666;2023-04-21T06:41:59;99748.88;;;8.72;79.68
12963;BME280;6546;49.882;8.666;2023-04-21T06:44:26;99763.59;;;8.88;78.79
12963;BME280;6546;49.882;8.666;2023-04-21T06:46:53;99761.78;;;8.80;79.04
12963;BME280;6546;49.882;8.666;2023-04-21T06:49:21;99766.81;;;8.90;79.35
12963;BME280;6546;49.882;8.666;2023-04-21T06:51:47;99761.72;;;9.30;77.94
12963;BME280;6546;49.882;8.666;2023-04-21T06:54:14;99755.78;;;10.17;75.32
12963;BME280;6546;49.882;8.666;2023-04-21T06:56:41;99767.00;;;10.40;72.68
12963;BME280;6546;49.882;8.666;2023-04-21T06:59:07;99762.50;;;10.34;72.75
12963;BME280;6546;49.882;8.666;2023-04-21T07:01:34;99763.22;;;10.20;73.27
12963;BME280;6546;49.882;8.666;2023-04-21T07:04:01;99761.41;;;10.13;73.46
12963;BME280;6546;49.882;8.666;2023-04-21T07:06:29;99764.38;;;9.93;73.66
12963;BME280;6546;49.882;8.666;2023-04-21T07:08:58;99767.63;;;9.87;74.15
12963;BME280;6546;49.882;8.666;2023-04-21T07:11:24;99767.47;;;9.81;74.50
12963;BME280;6546;49.882;8.666;2023-04-21T07:13:52;99755.66;;;9.94;75.49
12963;BME280;6546;49.882;8.666;2023-04-21T07:16:19;99749.81;;;10.17;74.57
12963;BME280;6546;49.882;8.666;2023-04-21T07:18:45;99748.44;;;10.37;73.67
12963;BME280;6546;49.882;8.666;2023-04-21T07:21:12;99757.03;;;10.60;72.64
12963;BME280;6546;49.882;8.666;2023-04-21T07:23:40;99763.88;;;10.84;71.46
12963;BME280;6546;49.882;8.666;2023-04-21T07:26:06;99769.69;;;10.86;70.80
12963;BME280;6546;49.882;8.666;2023-04-21T07:28:33;99751.63;;;10.78;71.30
12963;BME280;6546;49.882;8.666;2023-04-21T07:31:00;99757.88;;;10.83;71.33
12963;BME280;6546;49.882;8.666;2023-04-21T07:33:26;99755.81;;;10.79;71.54
12963;BME280;6546;49.882;8.666;2023-04-21T07:35:53;99765.75;;;10.67;71.41
12963;BME280;6546;49.882;8.666;2023-04-21T07:38:19;99770.38;;;10.49;71.82
12963;BME280;6546;49.882;8.666;2023-04-21T07:40:47;99768.00;;;10.31;72.62
12963;BME280;6546;49.882;8.666;2023-04-21T07:43:14;99759.97;;;10.10;73.44
12963;BME280;6546;49.882;8.666;2023-04-21T07:45:40;99767.13;;;10.00;73.91
12963;BME280;6546;49.882;8.666;2023-04-21T07:48:10;99757.09;;;9.97;73.70
12963;BME280;6546;49.882;8.666;2023-04-21T07:50:37;99750.50;;;9.86;74.52
12963;BME280;6546;49.882;8.666;2023-04-21T07:53:03;99740.00;;;9.88;75.04
12963;BME280;6546;49.882;8.666;2023-04-21T07:55:31;99746.75;;;9.97;75.94
12963;BME280;6546;49.882;8.666;2023-04-21T07:57:58;99749.28;;;10.21;75.43
12963;BME280;6546;49.882;8.666;2023-04-21T08:00:25;99750.22;;;10.36;74.59
12963;BME280;6546;49.882;8.666;2023-04-21T08:02:52;99752.75;;;10.44;73.72
12963;BME280;6546;49.882;8.666;2023-04-21T08:05:18;99748.50;;;10.51;73.35
12963;BME280;6546;49.882;8.666;2023-04-21T08:07:45;99744.44;;;10.57;73.53
12963;BME280;6546;49.882;8.666;2023-04-21T08:10:12;99753.13;;;10.64;73.50
12963;BME280;6546;49.882;8.666;2023-04-21T08:12:38;99756.28;;;10.82;73.14
12963;BME280;6546;49.882;8.666;2023-04-21T08:15:07;99759.63;;;10.91;72.36
12963;BME280;6546;49.882;8.666;2023-04-21T08:17:36;99752.94;;;10.96;72.86
12963;BME280;6546;49.882;8.666;2023-04-21T08:20:04;99758.00;;;10.90;72.56
12963;BME280;6546;49.882;8.666;2023-04-21T08:22:31;99758.78;;;10.98;72.18
12963;BME280;6546;49.882;8.666;2023-04-21T08:24:58;99752.09;;;11.04;72.16
12963;BME280;6546;49.882;8.666;2023-04-21T08:27:24;99762.22;;;11.14;71.36
12963;BME280;6546;49.882;8.666;2023-04-21T08:29:51;99753.16;;;11.32;70.93
12963;BME280;6546;49.882;8.666;2023-04-21T08:32:19;99759.50;;;11.52;71.15
12963;BME280;6546;49.882;8.666;2023-04-21T08:34:48;99751.44;;;11.85;70.60
12963;BME280;6546;49.882;8.666;2023-04-21T08:37:16;99739.97;;;12.08;69.51
12963;BME280;6546;49.882;8.666;2023-04-21T08:39:42;99744.28;;;11.87;69.69
12963;BME280;6546;49.882;8.666;2023-04-21T08:42:09;99739.38;;;11.92;69.73
12963;BME280;6546;49.882;8.666;2023-04-21T08:44:36;99732.38;;;12.07;69.17
12963;BME280;6546;49.882;8.666;2023-04-21T08:47:03;99746.06;;;12.30;68.75
12963;BME280;6546;49.882;8.666;2023-04-21T08:49:32;99737.38;;;12.23;67.96
12963;BME280;6546;49.882;8.666;2023-04-21T08:51:59;99725.50;;;12.14;68.39
12963;BME280;6546;49.882;8.666;2023-04-21T08:54:31;99717.78;;;12.21;68.91
12963;BME280;6546;49.882;8.666;2023-04-21T08:56:58;99725.19;;;12.38;69.10
12963;BME280;6546;49.882;8.666;2023-04-21T08:59:25;99716.69;;;12.30;68.04
12963;BME280;6546;49.882;8.666;2023-04-21T09:02:08;99712.56;;;12.35;67.96
12963;BME280;6546;49.882;8.666;2023-04-21T09:04:38;99717.94;;;12.34;68.60
12963;BME280;6546;49.882;8.666;2023-04-21T09:07:05;99715.06;;;12.43;68.87
12963;BME280;6546;49.882;8.666;2023-04-21T09:09:33;99705.38;;;12.52;68.89
12963;BME280;6546;49.882;8.666;2023-04-21T09:12:00;99705.44;;;12.58;68.54
12963;BME280;6546;49.882;8.666;2023-04-21T09:14:33;99719.22;;;12.59;68.02
12963;BME280;6546;49.882;8.666;2023-04-21T09:17:01;99715.59;;;12.75;67.93
12963;BME280;6546;49.882;8.666;2023-04-21T09:19:28;99722.66;;;13.02;67.74
12963;BME280;6546;49.882;8.666;2023-04-21T09:21:56;99722.00;;;13.14;66.29
12963;BME280;6546;49.882;8.666;2023-04-21T09:24:23;99726.31;;;13.07;65.84
12963;BME280;6546;49.882;8.666;2023-04-21T09:26:49;99731.09;;;13.25;65.71
12963;BME280;6546;49.882;8.666;2023-04-21T09:29:17;99734.72;;;13.52;66.29
12963;BME280;6546;49.882;8.666;2023-04-21T09:31:44;99729.97;;;13.34;63.83
12963;BME280;6546;49.882;8.666;2023-04-21T09:34:17;99730.59;;;13.36;64.77
12963;BME280;6546;49.882;8.666;2023-04-21T09:36:44;99729.34;;;13.32;64.04
12963;BME280;6546;49.882;8.666;2023-04-21T09:39:12;99735.84;;;13.00;64.38
12963;BME280;6546;49.882;8.666;2023-04-21T09:41:39;99737.38;;;12.95;64.74
12963;BME280;6546;49.882;8.666;2023-04-21T09:44:06;99731.81;;;12.98;65.81
12963;BME280;6546;49.882;8.666;2023-04-21T09:46:33;99723.97;;;13.12;65.26
12963;BME280;6546;49.882;8.666;2023-04-21T09:49:01;99716.88;;;13.21;65.00
12963;BME280;6546;49.882;8.666;2023-04-21T09:51:29;99726.53;;;13.27;64.91
12963;BME280;6546;49.882;8.666;2023-04-21T09:53:58;99727.72;;;13.31;64.44
12963;BME280;6546;49.882;8.666;2023-04-21T09:56:28;99738.94;;;13.32;64.32
12963;BME280;6546;49.882;8.666;2023-04-21T09:59:00;99724.66;;;13.21;65.27
12963;BME280;6546;49.882;8.666;2023-04-21T10:01:28;99727.44;;;13.41;65.10
12963;BME280;6546;49.882;8.666;2023-04-21T10:03:58;99724.25;;;13.45;64.46
12963;BME280;6546;49.882;8.666;2023-04-21T10:06:25;99713.88;;;13.80;64.42
12963;BME280;6546;49.882;8.666;2023-04-21T10:08:52;99706.19;;;14.06;62.85
12963;BME280;6546;49.882;8.666;2023-04-21T10:11:21;99701.25;;;14.11;63.84
12963;BME280;6546;49.882;8.666;2023-04-21T10:13:49;99706.97;;;14.34;62.54
12963;BME280;6546;49.882;8.666;2023-04-21T10:16:16;99705.22;;;14.54;61.45
12963;BME280;6546;49.882;8.666;2023-04-21T10:18:44;99701.03;;;14.53;60.02
12963;BME280;6546;49.882;8.666;2023-04-21T10:21:16;99700.66;;;14.63;59.14
12963;BME280;6546;49.882;8.666;2023-04-21T10:23:46;99696.03;;;14.65;60.11
12963;BME280;6546;49.882;8.666;2023-04-21T10:26:16;99703.66;;;14.66;60.43
12963;BME280;6546;49.882;8.666;2023-04-21T10:28:45;99704.03;;;14.50;61.67
12963;BME280;6546;49.882;8.666;2023-04-21T10:31:25;99703.41;;;14.48;62.54
12963;BME280;6546;49.882;8.666;2023-04-21T10:34:11;99709.09;;;14.85;60.45
12963;BME280;6546;49.882;8.666;2023-04-21T10:36:42;99708.13;;;14.99;60.20
12963;BME280;6546;49.882;8.666;2023-04-21T10:39:24;99703.69;;;15.06;60.21
12963;BME280;6546;49.882;8.666;2023-04-21T10:41:54;99698.06;;;14.69;60.83
12963;BME280;6546;49.882;8.666;2023-04-21T10:44:21;99703.84;;;14.65;60.18
12963;BME280;6546;49.882;8.666;2023-04-21T10:46:50;99695.91;;;14.32;61.30
12963;BME280;6546;49.882;8.666;2023-04-21T10:49:21;99693.38;;;13.98;63.51
12963;BME280;6546;49.882;8.666;2023-04-21T10:52:05;99685.03;;;13.75;64.19
12963;BME280;6546;49.882;8.666;2023-04-21T10:54:37;99689.28;;;13.82;64.70
12963;BME280;6546;49.882;8.666;2023-04-21T10:57:07;99696.13;;;13.55;64.56
12963;BME280;6546;49.882;8.666;2023-04-21T10:59:34;99692.72;;;13.55;65.00
12963;BME280;6546;49.882;8.666;2023-04-21T11:02:02;99696.25;;;13.75;64.33
12963;BME280;6546;49.882;8.666;2023-04-21T11:04:30;99685.56;;;13.63;64.84
12963;BME280;6546;49.882;8.666;2023-04-21T11:07:05;99682.13;;;13.56;65.42
12963;BME280;6546;49.882;8.666;2023-04-21T11:09:32;99682.13;;;13.56;65.31
12963;BME280;6546;49.882;8.666;2023-04-21T11:11:59;99675.91;;;13.57;65.62
12963;BME280;6546;49.882;8.666;2023-04-21T11:14:26;99678.75;;;13.62;65.96
12963;BME280;6546;49.882;8.666;2023-04-21T11:16:53;99672.53;;;13.98;65.69
12963;BME280;6546;49.882;8.666;2023-04-21T11:19:21;99678.66;;;14.18;64.72
12963;BME280;6546;49.882;8.666;2023-04-21T11:21:49;99667.44;;;14.24;64.19
12963;BME280;6546;49.882;8.666;2023-04-21T11:24:16;99667.25;;;14.32;64.01
12963;BME280;6546;49.882;8.666;2023-04-21T11:26:42;99665.47;;;14.33;63.91
12963;BME280;6546;49.882;8.666;2023-04-21T11:29:10;99659.25;;;14.27;64.77
12963;BME280;6546;49.882;8.666;2023-04-21T11:31:38;99658.59;;;14.18;64.57
12963;BME280;6546;49.882;8.666;2023-04-21T11:34:06;99659.75;;;14.09;64.45
12963;BME280;6546;49.882;8.666;2023-04-21T11:36:34;99659.25;;;14.27;64.55
12963;BME280;6546;49.882;8.666;2023-04-21T11:39:03;99647.00;;;14.21;63.98
12963;BME280;6546;49.882;8.666;2023-04-21T11:41:32;99644.66;;;14.39;63.25
12963;BME280;6546;49.882;8.666;2023-04-21T11:44:00;99634.19;;;14.33;62.46
12963;BME280;6546;49.882;8.666;2023-04-21T11:46:27;99646.06;;;14.35;62.08
12963;BME280;6546;49.882;8.666;2023-04-21T11:48:58;99651.28;;;14.48;62.27
12963;BME280;6546;49.882;8.666;2023-04-21T11:51:25;99645.72;;;14.78;61.97
12963;BME280;6546;49.882;8.666;2023-04-21T11:53:53;99633.72;;;15.03;61.77
12963;BME280;6546;49.882;8.666;2023-04-21T11:56:20;99640.53;;;14.97;60.42
12963;BME280;6546;49.882;8.666;2023-04-21T11:58:48;99633.69;;;14.90;61.51
12963;BME280;6546;49.882;8.666;2023-04-21T12:01:15;99635.72;;;14.88;62.22
12963;BME280;6546;49.882;8.666;2023-04-21T12:03:49;99624.88;;;14.64;62.26
12963;BME280;6546;49.882;8.666;2023-04-21T12:06:20;99630.88;;;14.52;62.71
12963;BME280;6546;49.882;8.666;2023-04-21T12:08:46;99637.91;;;14.64;62.88
12963;BME280;6546;49.882;8.666;2023-04-21T12:11:16;99636.09;;;14.71;61.65
12963;BME280;6546;49.882;8.666;2023-04-21T12:13:43;99630.72;;;14.73;61.59
12963;BME280;6546;49.882;8.666;2023-04-21T12:16:11;99628.50;;;14.63;61.57
12963;BME280;6546;49.882;8.666;2023-04-21T12:18:38;99627.81;;;14.35;62.00
12963;BME280;6546;49.882;8.666;2023-04-21T12:21:04;99621.66;;;14.49;62.33
12963;BME280;6546;49.882;8.666;2023-04-21T12:23:31;99626.28;;;14.54;62.93
12963;BME280;6546;49.882;8.666;2023-04-21T12:25:57;99616.25;;;14.57;61.75
12963;BME280;6546;49.882;8.666;2023-04-21T12:28:26;99619.06;;;14.49;61.19
12963;BME280;6546;49.882;8.666;2023-04-21T12:30:52;99611.41;;;14.41;61.97
12963;BME280;6546;49.882;8.666;2023-04-21T12:33:19;99625.06;;;14.56;61.31
12963;BME280;6546;49.882;8.666;2023-04-21T12:35:46;99616.03;;;14.52;60.56
12963;BME280;6546;49.882;8.666;2023-04-21T12:38:12;99607.41;;;14.52;60.30
12963;BME280;6546;49.882;8.666;2023-04-21T12:40:39;99615.47;;;14.63;61.07
12963;BME280;6546;49.882;8.666;2023-04-21T12:43:05;99621.84;;;14.61;60.98
12963;BME280;6546;49.882;8.666;2023-04-21T12:45:33;99615.25;;;14.71;61.44
12963;BME280;6546;49.882;8.666;2023-04-21T12:48:00;99615.44;;;14.77;60.68
12963;BME280;6546;49.882;8.666;2023-04-21T12:50:27;99611.28;;;14.89;59.62
12963;BME280;6546;49.882;8.666;2023-04-21T12:52:54;99605.44;;;14.93;60.21
12963;BME280;6546;49.882;8.666;2023-04-21T12:55:21;99599.03;;;14.96;60.41
12963;BME280;6546;49.882;8.666;2023-04-21T12:57:47;99597.84;;;14.92;59.03
12963;BME280;6546;49.882;8.666;2023-04-21T13:00:15;99588.00;;;14.81;59.21
12963;BME280;6546;49.882;8.666;2023-04-21T13:02:43;99586.78;;;14.83;59.70
12963;BME280;6546;49.882;8.666;2023-04-21T13:05:10;99575.38;;;14.91;59.57
12963;BME280;6546;49.882;8.666;2023-04-21T13:07:37;99583.19;;;14.84;59.89
12963;BME280;6546;49.882;8.666;2023-04-21T13:10:05;99587.41;;;14.79;60.10
12963;BME280;6546;49.882;8.666;2023-04-21T13:12:32;99579.78;;;14.70;60.66
12963;BME280;6546;49.882;8.666;2023-04-21T13:14:58;99572.56;;;14.73;60.58
12963;BME280;6546;49.882;8.666;2023-04-21T13:17:25;99569.75;;;14.67;60.82
12963;BME280;6546;49.882;8.666;2023-04-21T13:19:53;99566.97;;;14.76;58.91